sensor_id;sensor_type;location;lat;lon;timestamp;temperature;humidity
14850;DHT22;7517;48.400;11.770;2023-11-21T00:00:08;12.10;78.10
14850;DHT22;7517;48.400;11.770;2023-11-21T00:02:38;12.10;77.90
14850;DHT22;7517;48.400;11.770;2023-11-21T00:05:06;12.10;77.90
14850;DHT22;7517;48.400;11.770;2023-11-21T00:07:35;12.10;77.70
14850;DHT22;7517;48.400;11.770;2023-11-21T00:10:03;12.10;77.70
14850;DHT22;7517;48.400;11.770;2023-11-21T00:12:33;12.10;77.90
14850;DHT22;7517;48.400;11.770;2023-11-21T00:15:02;12.10;77.60
14850;DHT22;7517;48.400;11.770;2023-11-21T00:17:31;12.10;77.60
14850;DHT22;7517;48.400;11.770;2023-11-21T00:19:58;12.10;77.60
14850;DHT22;7517;48.400;11.770;2023-11-21T00:22:26;12.10;77.60
14850;DHT22;7517;48.400;11.770;2023-11-21T00:24:53;12.10;77.60
14850;DHT22;7517;48.400;11.770;2023-11-21T00:27:20;12.10;77.60
14850;DHT22;7517;48.400;11.770;2023-11-21T00:29:49;12.20;77.70
14850;DHT22;7517;48.400;11.770;2023-11-21T00:32:16;12.10;77.70
14850;DHT22;7517;48.400;11.770;2023-11-21T00:34:43;12.20;77.80
14850;DHT22;7517;48.400;11.770;2023-11-21T00:37:11;12.10;77.60
14850;DHT22;7517;48.400;11.770;2023-11-21T00:39:38;12.10;77.70
14850;DHT22;7517;48.400;11.770;2023-11-21T00:42:06;12.20;77.90
14850;DHT22;7517;48.400;11.770;2023-11-21T00:44:34;12.20;77.80
14850;DHT22;7517;48.400;11.770;2023-11-21T00:47:06;12.20;78.50
14850;DHT22;7517;48.400;11.770;2023-11-21T00:49:33;12.20;77.80
14850;DHT22;7517;48.400;11.770;2023-11-21T00:52:00;12.20;77.90
14850;DHT22;7517;48.400;11.770;2023-11-21T00:54:28;12.20;78.50
14850;DHT22;7517;48.400;11.770;2023-11-21T00:56:55;12.20;77.80
14850;DHT22;7517;48.400;11.770;2023-11-21T00:59:23;12.30;77.80
14850;DHT22;7517;48.400;11.770;2023-11-21T01:01:50;12.30;77.80
14850;DHT22;7517;48.400;11.770;2023-11-21T01:04:20;12.20;77.90
14850;DHT22;7517;48.400;11.770;2023-11-21T01:06:48;12.30;77.90
14850;DHT22;7517;48.400;11.770;2023-11-21T01:09:15;12.30;77.90
14850;DHT22;7517;48.400;11.770;2023-11-21T01:11:43;12.40;77.80
14850;DHT22;7517;48.400;11.770;2023-11-21T01:14:11;12.40;77.90
14850;DHT22;7517;48.400;11.770;2023-11-21T01:16:39;12.40;78.20
14850;DHT22;7517;48.400;11.770;2023-11-21T01:19:06;12.40;78.20
14850;DHT22;7517;48.400;11.770;2023-11-21T01:21:36;12.50;78.40
14850;DHT22;7517;48.400;11.770;2023-11-21T01:24:04;12.50;78.20
14850;DHT22;7517;48.400;11.770;2023-11-21T01:26:33;12.50;78.30
14850;DHT22;7517;48.400;11.770;2023-11-21T01:29:00;12.50;78.10
14850;DHT22;7517;48.400;11.770;2023-11-21T01:31:28;12.60;78.20
14850;DHT22;7517;48.400;11.770;2023-11-21T01:33:55;12.60;78.20
14850;DHT22;7517;48.400;11.770;2023-11-21T01:36:29;12.60;77.80
14850;DHT22;7517;48.400;11.770;2023-11-21T01:38:59;12.60;77.90
14850;DHT22;7517;48.400;11.770;2023-11-21T01:41:26;12.60;78.00
14850;DHT22;7517;48.400;11.770;2023-11-21T01:43:56;12.60;78.10
14850;DHT22;7517;48.400;11.770;2023-11-21T01:46:24;12.60;78.20
14850;DHT22;7517;48.400;11.770;2023-11-21T01:48:52;12.60;78.30
14850;DHT22;7517;48.400;11.770;2023-11-21T01:51:21;12.60;78.50
14850;DHT22;7517;48.400;11.770;2023-11-21T01:53:49;12.60;79.30
14850;DHT22;7517;48.400;11.770;2023-11-21T01:56:18;12.60;78.80
14850;DHT22;7517;48.400;11.770;2023-11-21T01:58:46;12.60;79.40
14850;DHT22;7517;48.400;11.770;2023-11-21T02:01:14;12.60;78.80
14850;DHT22;7517;48.400;11.770;2023-11-21T02:03:41;12.60;78.90
14850;DHT22;7517;48.400;11.770;2023-11-21T02:06:09;12.60;78.90
14850;DHT22;7517;48.400;11.770;2023-11-21T02:08:37;12.60;78.80
14850;DHT22;7517;48.400;11.770;2023-11-21T02:11:05;12.60;78.90
14850;DHT22;7517;48.400;11.770;2023-11-21T02:13:35;12.60;79.10
14850;DHT22;7517;48.400;11.770;2023-11-21T02:16:02;12.60;79.10
14850;DHT22;7517;48.400;11.770;2023-11-21T02:18:30;12.60;79.10
14850;DHT22;7517;48.400;11.770;2023-11-21T02:20:58;12.60;79.00
14850;DHT22;7517;48.400;11.770;2023-11-21T02:23:29;12.60;79.20
14850;DHT22;7517;48.400;11.770;2023-11-21T02:25:57;12.60;79.10
14850;DHT22;7517;48.400;11.770;2023-11-21T02:28:24;12.60;79.20
14850;DHT22;7517;48.400;11.770;2023-11-21T02:30:52;12.60;79.00
14850;DHT22;7517;48.400;11.770;2023-11-21T02:33:24;12.60;79.00
14850;DHT22;7517;48.400;11.770;2023-11-21T02:35:52;12.60;79.20
14850;DHT22;7517;48.400;11.770;2023-11-21T02:38:20;12.70;79.10
14850;DHT22;7517;48.400;11.770;2023-11-21T02:40:49;12.60;78.80
14850;DHT22;7517;48.400;11.770;2023-11-21T02:43:17;12.60;78.60
14850;DHT22;7517;48.400;11.770;2023-11-21T02:45:45;12.60;78.70
14850;DHT22;7517;48.400;11.770;2023-11-21T02:48:12;12.60;78.50
14850;DHT22;7517;48.400;11.770;2023-11-21T02:50:39;12.60;78.30
14850;DHT22;7517;48.400;11.770;2023-11-21T02:53:08;12.60;78.20
14850;DHT22;7517;48.400;11.770;2023-11-21T02:55:38;12.60;78.30
14850;DHT22;7517;48.400;11.770;2023-11-21T02:58:07;12.60;78.20
14850;DHT22;7517;48.400;11.770;2023-11-21T03:00:34;12.60;78.10
14850;DHT22;7517;48.400;11.770;2023-11-21T03:03:02;12.60;78.20
14850;DHT22;7517;48.400;11.770;2023-11-21T03:05:29;12.50;78.20
14850;DHT22;7517;48.400;11.770;2023-11-21T03:07:57;12.50;78.40
14850;DHT22;7517;48.400;11.770;2023-11-21T03:10:26;12.50;78.50
14850;DHT22;7517;48.400;11.770;2023-11-21T03:12:53;12.50;78.60
14850;DHT22;7517;48.400;11.770;2023-11-21T03:15:22;12.50;78.60
14850;DHT22;7517;48.400;11.770;2023-11-21T03:17:50;12.50;79.40
14850;DHT22;7517;48.400;11.770;2023-11-21T03:20:17;12.50;78.90
14850;DHT22;7517;48.400;11.770;2023-11-21T03:22:45;12.50;78.90
14850;DHT22;7517;48.400;11.770;2023-11-21T03:25:12;12.50;79.10
14850;DHT22;7517;48.400;11.770;2023-11-21T03:27:41;12.50;79.10
14850;DHT22;7517;48.400;11.770;2023-11-21T03:30:10;12.50;79.00
14850;DHT22;7517;48.400;11.770;2023-11-21T03:32:40;12.50;79.00
14850;DHT22;7517;48.400;11.770;2023-11-21T03:35:07;12.60;79.30
14850;DHT22;7517;48.400;11.770;2023-11-21T03:37:35;12.60;79.30
14850;DHT22;7517;48.400;11.770;2023-11-21T03:40:04;12.60;79.10
14850;DHT22;7517;48.400;11.770;2023-11-21T03:42:34;12.60;79.90
14850;DHT22;7517;48.400;11.770;2023-11-21T03:45:01;12.60;79.20
14850;DHT22;7517;48.400;11.770;2023-11-21T03:47:31;12.60;79.40
14850;DHT22;7517;48.400;11.770;2023-11-21T03:50:00;12.60;79.50
14850;DHT22;7517;48.400;11.770;2023-11-21T03:52:29;12.60;79.50
14850;DHT22;7517;48.400;11.770;2023-11-21T03:54:56;12.60;79.60
14850;DHT22;7517;48.400;11.770;2023-11-21T03:57:23;12.60;79.60
14850;DHT22;7517;48.400;11.770;2023-11-21T03:59:51;12.60;79.50
14850;DHT22;7517;48.400;11.770;2023-11-21T04:02:18;12.60;79.10
14850;DHT22;7517;48.400;11.770;2023-11-21T04:04:45;12.60;79.80
14850;DHT22;7517;48.400;11.770;2023-11-21T04:07:14;12.60;79.10
14850;DHT22;7517;48.400;11.770;2023-11-21T04:09:42;12.50;78.90
14850;DHT22;7517;48.400;11.770;2023-11-21T04:12:09;12.50;79.00
14850;DHT22;7517;48.400;11.770;2023-11-21T04:14:36;12.50;79.10
14850;DHT22;7517;48.400;11.770;2023-11-21T04:17:04;12.50;79.10
14850;DHT22;7517;48.400;11.770;2023-11-21T04:19:31;12.50;78.90
14850;DHT22;7517;48.400;11.770;2023-11-21T04:21:58;12.50;78.90
14850;DHT22;7517;48.400;11.770;2023-11-21T04:24:27;12.40;78.90
14850;DHT22;7517;48.400;11.770;2023-11-21T04:26:55;12.40;78.80
14850;DHT22;7517;48.400;11.770;2023-11-21T04:29:22;12.40;78.80
14850;DHT22;7517;48.400;11.770;2023-11-21T04:31:49;12.40;78.90
14850;DHT22;7517;48.400;11.770;2023-11-21T04:34:16;12.30;78.90
14850;DHT22;7517;48.400;11.770;2023-11-21T04:36:44;12.30;79.00
14850;DHT22;7517;48.400;11.770;2023-11-21T04:39:11;12.30;79.10
14850;DHT22;7517;48.400;11.770;2023-11-21T04:41:40;12.30;79.30
14850;DHT22;7517;48.400;11.770;2023-11-21T04:44:08;12.20;79.30
14850;DHT22;7517;48.400;11.770;2023-11-21T04:46:35;12.30;79.50
14850;DHT22;7517;48.400;11.770;2023-11-21T04:49:03;12.20;79.50
14850;DHT22;7517;48.400;11.770;2023-11-21T04:51:30;12.20;79.60
14850;DHT22;7517;48.400;11.770;2023-11-21T04:53:57;12.20;79.70
14850;DHT22;7517;48.400;11.770;2023-11-21T04:56:25;12.20;79.60
14850;DHT22;7517;48.400;11.770;2023-11-21T04:58:54;12.20;79.40
14850;DHT22;7517;48.400;11.770;2023-11-21T05:01:22;12.20;79.60
14850;DHT22;7517;48.400;11.770;2023-11-21T05:03:52;12.20;79.80
14850;DHT22;7517;48.400;11.770;2023-11-21T05:06:19;12.20;80.00
14850;DHT22;7517;48.400;11.770;2023-11-21T05:08:46;12.20;80.20
14850;DHT22;7517;48.400;11.770;2023-11-21T05:11:23;12.20;80.20
14850;DHT22;7517;48.400;11.770;2023-11-21T05:13:51;12.20;80.00
14850;DHT22;7517;48.400;11.770;2023-11-21T05:16:19;12.20;80.10
14850;DHT22;7517;48.400;11.770;2023-11-21T05:18:47;12.20;79.80
14850;DHT22;7517;48.400;11.770;2023-11-21T05:21:16;12.20;79.80
14850;DHT22;7517;48.400;11.770;2023-11-21T05:23:46;12.20;79.70
14850;DHT22;7517;48.400;11.770;2023-11-21T05:26:16;12.20;79.40
14850;DHT22;7517;48.400;11.770;2023-11-21T05:28:46;12.20;79.20
14850;DHT22;7517;48.400;11.770;2023-11-21T05:31:13;12.20;79.20
14850;DHT22;7517;48.400;11.770;2023-11-21T05:33:42;12.20;79.30
14850;DHT22;7517;48.400;11.770;2023-11-21T05:36:09;12.10;79.40
14850;DHT22;7517;48.400;11.770;2023-11-21T05:38:37;12.10;79.50
14850;DHT22;7517;48.400;11.770;2023-11-21T05:41:04;12.10;79.60
14850;DHT22;7517;48.400;11.770;2023-11-21T05:43:32;12.10;79.50
14850;DHT22;7517;48.400;11.770;2023-11-21T05:46:01;12.10;79.50
14850;DHT22;7517;48.400;11.770;2023-11-21T05:48:28;12.10;79.40
14850;DHT22;7517;48.400;11.770;2023-11-21T05:50:57;12.10;79.10
14850;DHT22;7517;48.400;11.770;2023-11-21T05:53:27;12.10;78.80
14850;DHT22;7517;48.400;11.770;2023-11-21T05:55:56;12.00;78.70
14850;DHT22;7517;48.400;11.770;2023-11-21T05:58:23;12.00;78.70
14850;DHT22;7517;48.400;11.770;2023-11-21T06:00:50;11.90;78.70
14850;DHT22;7517;48.400;11.770;2023-11-21T06:03:18;11.90;78.80
14850;DHT22;7517;48.400;11.770;2023-11-21T06:05:45;11.80;78.60
14850;DHT22;7517;48.400;11.770;2023-11-21T06:08:14;11.80;78.50
14850;DHT22;7517;48.400;11.770;2023-11-21T06:10:42;11.70;78.20
14850;DHT22;7517;48.400;11.770;2023-11-21T06:13:10;11.70;78.30
14850;DHT22;7517;48.400;11.770;2023-11-21T06:15:37;11.70;78.40
14850;DHT22;7517;48.400;11.770;2023-11-21T06:18:05;11.60;78.30
14850;DHT22;7517;48.400;11.770;2023-11-21T06:20:35;11.60;78.30
14850;DHT22;7517;48.400;11.770;2023-11-21T06:23:04;11.50;78.30
14850;DHT22;7517;48.400;11.770;2023-11-21T06:25:33;11.50;78.40
14850;DHT22;7517;48.400;11.770;2023-11-21T06:28:02;11.40;78.30
14850;DHT22;7517;48.400;11.770;2023-11-21T06:30:29;11.40;78.40
14850;DHT22;7517;48.400;11.770;2023-11-21T06:32:57;11.40;78.50
14850;DHT22;7517;48.400;11.770;2023-11-21T06:35:26;11.40;78.50
14850;DHT22;7517;48.400;11.770;2023-11-21T06:37:55;11.40;78.50
14850;DHT22;7517;48.400;11.770;2023-11-21T06:40:23;11.30;78.60
14850;DHT22;7517;48.400;11.770;2023-11-21T06:42:51;11.30;78.80
14850;DHT22;7517;48.400;11.770;2023-11-21T06:45:19;11.30;78.80
14850;DHT22;7517;48.400;11.770;2023-11-21T06:47:47;11.30;78.80
14850;DHT22;7517;48.400;11.770;2023-11-21T06:50:15;11.30;78.70
14850;DHT22;7517;48.400;11.770;2023-11-21T06:52:42;11.30;79.30
14850;DHT22;7517;48.400;11.770;2023-11-21T06:55:10;11.30;78.50
14850;DHT22;7517;48.400;11.770;2023-11-21T06:57:37;11.30;78.50
14850;DHT22;7517;48.400;11.770;2023-11-21T07:00:09;11.30;78.60
14850;DHT22;7517;48.400;11.770;2023-11-21T07:02:37;11.30;78.40
14850;DHT22;7517;48.400;11.770;2023-11-21T07:05:05;11.30;78.50
14850;DHT22;7517;48.400;11.770;2023-11-21T07:07:33;11.20;78.50
14850;DHT22;7517;48.400;11.770;2023-11-21T07:10:02;11.20;78.70
14850;DHT22;7517;48.400;11.770;2023-11-21T07:12:31;11.20;78.90
14850;DHT22;7517;48.400;11.770;2023-11-21T07:14:58;11.30;79.20
14850;DHT22;7517;48.400;11.770;2023-11-21T07:17:27;11.30;79.40
14850;DHT22;7517;48.400;11.770;2023-11-21T07:19:54;11.20;79.50
14850;DHT22;7517;48.400;11.770;2023-11-21T07:22:21;11.30;79.80
14850;DHT22;7517;48.400;11.770;2023-11-21T07:24:49;11.30;79.90
14850;DHT22;7517;48.400;11.770;2023-11-21T07:27:17;11.40;80.10
14850;DHT22;7517;48.400;11.770;2023-11-21T07:29:45;11.40;80.20
14850;DHT22;7517;48.400;11.770;2023-11-21T07:32:13;11.50;80.30
14850;DHT22;7517;48.400;11.770;2023-11-21T07:34:43;11.50;80.30
14850;DHT22;7517;48.400;11.770;2023-11-21T07:37:10;11.60;80.40
14850;DHT22;7517;48.400;11.770;2023-11-21T07:39:37;11.60;80.30
14850;DHT22;7517;48.400;11.770;2023-11-21T07:42:07;11.70;80.40
14850;DHT22;7517;48.400;11.770;2023-11-21T07:44:36;11.70;80.40
14850;DHT22;7517;48.400;11.770;2023-11-21T07:47:04;11.80;80.60
14850;DHT22;7517;48.400;11.770;2023-11-21T07:49:32;11.80;80.60
14850;DHT22;7517;48.400;11.770;2023-11-21T07:52:01;11.90;80.80
14850;DHT22;7517;48.400;11.770;2023-11-21T07:54:29;12.00;80.80
14850;DHT22;7517;48.400;11.770;2023-11-21T07:56:56;12.10;80.80
14850;DHT22;7517;48.400;11.770;2023-11-21T07:59:23;12.10;80.50
14850;DHT22;7517;48.400;11.770;2023-11-21T08:01:50;12.20;80.60
14850;DHT22;7517;48.400;11.770;2023-11-21T08:04:18;12.30;80.40
14850;DHT22;7517;48.400;11.770;2023-11-21T08:06:45;12.30;80.40
14850;DHT22;7517;48.400;11.770;2023-11-21T08:09:14;12.40;80.10
14850;DHT22;7517;48.400;11.770;2023-11-21T08:11:46;12.50;79.90
14850;DHT22;7517;48.400;11.770;2023-11-21T08:14:13;12.50;79.60
14850;DHT22;7517;48.400;11.770;2023-11-21T08:16:40;12.60;79.80
14850;DHT22;7517;48.400;11.770;2023-11-21T08:19:08;12.70;79.90
14850;DHT22;7517;48.400;11.770;2023-11-21T08:21:35;12.70;79.70
14850;DHT22;7517;48.400;11.770;2023-11-21T08:24:03;12.80;79.40
14850;DHT22;7517;48.400;11.770;2023-11-21T08:26:33;12.90;79.40
14850;DHT22;7517;48.400;11.770;2023-11-21T08:29:00;12.90;79.20
14850;DHT22;7517;48.400;11.770;2023-11-21T08:31:28;13.00;79.20
14850;DHT22;7517;48.400;11.770;2023-11-21T08:33:55;13.10;79.10
14850;DHT22;7517;48.400;11.770;2023-11-21T08:36:22;13.10;79.00
14850;DHT22;7517;48.400;11.770;2023-11-21T08:38:50;13.10;79.00
14850;DHT22;7517;48.400;11.770;2023-11-21T08:41:18;13.20;78.70
14850;DHT22;7517;48.400;11.770;2023-11-21T08:43:50;13.20;78.30
14850;DHT22;7517;48.400;11.770;2023-11-21T08:46:18;13.20;78.00
14850;DHT22;7517;48.400;11.770;2023-11-21T08:48:45;13.30;78.10
14850;DHT22;7517;48.400;11.770;2023-11-21T08:51:15;13.30;78.00
14850;DHT22;7517;48.400;11.770;2023-11-21T08:53:43;13.30;77.90
14850;DHT22;7517;48.400;11.770;2023-11-21T08:56:12;13.40;78.00
14850;DHT22;7517;48.400;11.770;2023-11-21T08:58:40;13.40;77.60
14850;DHT22;7517;48.400;11.770;2023-11-21T09:01:09;13.40;77.50
14850;DHT22;7517;48.400;11.770;2023-11-21T09:03:37;13.50;77.40
14850;DHT22;7517;48.400;11.770;2023-11-21T09:06:05;13.50;77.60
14850;DHT22;7517;48.400;11.770;2023-11-21T09:08:35;13.60;77.90
14850;DHT22;7517;48.400;11.770;2023-11-21T09:11:03;13.60;78.00
14850;DHT22;7517;48.400;11.770;2023-11-21T09:13:31;13.70;77.90
14850;DHT22;7517;48.400;11.770;2023-11-21T09:15:58;13.80;78.20
14850;DHT22;7517;48.400;11.770;2023-11-21T09:18:27;13.90;78.30
14850;DHT22;7517;48.400;11.770;2023-11-21T09:20:54;14.00;78.20
14850;DHT22;7517;48.400;11.770;2023-11-21T09:23:21;14.00;78.30
14850;DHT22;7517;48.400;11.770;2023-11-21T09:25:49;14.10;78.30
14850;DHT22;7517;48.400;11.770;2023-11-21T09:28:17;14.20;78.10
14850;DHT22;7517;48.400;11.770;2023-11-21T09:30:46;14.30;77.90
14850;DHT22;7517;48.400;11.770;2023-11-21T09:33:14;14.40;78.00
14850;DHT22;7517;48.400;11.770;2023-11-21T09:35:43;14.50;77.90
14850;DHT22;7517;48.400;11.770;2023-11-21T09:38:10;14.60;77.20
14850;DHT22;7517;48.400;11.770;2023-11-21T09:40:38;14.70;77.40
14850;DHT22;7517;48.400;11.770;2023-11-21T09:43:06;14.70;77.20
14850;DHT22;7517;48.400;11.770;2023-11-21T09:45:44;14.80;76.80
14850;DHT22;7517;48.400;11.770;2023-11-21T09:48:13;14.80;76.50
14850;DHT22;7517;48.400;11.770;2023-11-21T09:50:43;14.80;76.20
14850;DHT22;7517;48.400;11.770;2023-11-21T09:53:17;14.80;76.20
14850;DHT22;7517;48.400;11.770;2023-11-21T09:55:47;14.90;75.60
14850;DHT22;7517;48.400;11.770;2023-11-21T09:58:18;14.90;76.00
14850;DHT22;7517;48.400;11.770;2023-11-21T10:00:47;14.90;75.90
14850;DHT22;7517;48.400;11.770;2023-11-21T10:03:15;14.90;75.90
14850;DHT22;7517;48.400;11.770;2023-11-21T10:05:45;14.90;75.60
14850;DHT22;7517;48.400;11.770;2023-11-21T10:08:15;14.90;75.30
14850;DHT22;7517;48.400;11.770;2023-11-21T10:10:44;14.90;75.60
14850;DHT22;7517;48.400;11.770;2023-11-21T10:13:14;14.90;75.40
14850;DHT22;7517;48.400;11.770;2023-11-21T10:15:43;14.90;75.30
14850;DHT22;7517;48.400;11.770;2023-11-21T10:18:15;14.90;75.20
14850;DHT22;7517;48.400;11.770;2023-11-21T10:20:45;14.90;75.50
14850;DHT22;7517;48.400;11.770;2023-11-21T10:23:18;14.90;75.30
14850;DHT22;7517;48.400;11.770;2023-11-21T10:25:47;14.90;75.60
14850;DHT22;7517;48.400;11.770;2023-11-21T10:28:15;14.90;75.40
14850;DHT22;7517;48.400;11.770;2023-11-21T10:30:42;14.90;75.20
14850;DHT22;7517;48.400;11.770;2023-11-21T10:33:09;14.90;75.40
14850;DHT22;7517;48.400;11.770;2023-11-21T10:35:44;14.90;75.30
14850;DHT22;7517;48.400;11.770;2023-11-21T10:38:16;15.00;74.70
14850;DHT22;7517;48.400;11.770;2023-11-21T10:40:44;15.00;75.20
14850;DHT22;7517;48.400;11.770;2023-11-21T10:43:12;15.00;75.20
14850;DHT22;7517;48.400;11.770;2023-11-21T10:45:41;15.10;75.50
14850;DHT22;7517;48.400;11.770;2023-11-21T10:48:09;15.10;75.50
14850;DHT22;7517;48.400;11.770;2023-11-21T10:50:41;15.10;75.10
14850;DHT22;7517;48.400;11.770;2023-11-21T10:53:10;15.10;75.20
14850;DHT22;7517;48.400;11.770;2023-11-21T10:55:38;15.20;75.10
14850;DHT22;7517;48.400;11.770;2023-11-21T10:58:07;15.20;75.10
14850;DHT22;7517;48.400;11.770;2023-11-21T11:00:37;15.20;75.10
14850;DHT22;7517;48.400;11.770;2023-11-21T11:03:07;15.20;75.00
14850;DHT22;7517;48.400;11.770;2023-11-21T11:05:40;15.30;74.90
14850;DHT22;7517;48.400;11.770;2023-11-21T11:08:12;15.30;74.60
14850;DHT22;7517;48.400;11.770;2023-11-21T11:10:44;15.30;74.50
14850;DHT22;7517;48.400;11.770;2023-11-21T11:13:13;15.30;74.70
14850;DHT22;7517;48.400;11.770;2023-11-21T11:15:41;15.30;74.70
14850;DHT22;7517;48.400;11.770;2023-11-21T11:18:12;15.30;74.90
14850;DHT22;7517;48.400;11.770;2023-11-21T11:20:40;15.30;74.80
14850;DHT22;7517;48.400;11.770;2023-11-21T11:23:28;15.30;74.70
14850;DHT22;7517;48.400;11.770;2023-11-21T11:26:15;15.40;73.90
14850;DHT22;7517;48.400;11.770;2023-11-21T11:29:00;15.40;74.00
14850;DHT22;7517;48.400;11.770;2023-11-21T11:31:44;15.40;74.50
14850;DHT22;7517;48.400;11.770;2023-11-21T11:34:30;15.50;74.90
14850;DHT22;7517;48.400;11.770;2023-11-21T11:37:02;15.50;75.00
14850;DHT22;7517;48.400;11.770;2023-11-21T11:39:37;15.50;75.20
14850;DHT22;7517;48.400;11.770;2023-11-21T11:42:08;15.60;74.60
14850;DHT22;7517;48.400;11.770;2023-11-21T11:44:50;15.60;74.90
14850;DHT22;7517;48.400;11.770;2023-11-21T11:47:22;15.70;73.60
14850;DHT22;7517;48.400;11.770;2023-11-21T11:50:05;15.70;74.10
14850;DHT22;7517;48.400;11.770;2023-11-21T11:52:40;15.70;73.20
14850;DHT22;7517;48.400;11.770;2023-11-21T11:55:11;15.70;74.10
14850;DHT22;7517;48.400;11.770;2023-11-21T11:57:41;15.70;73.70
14850;DHT22;7517;48.400;11.770;2023-11-21T12:00:15;15.70;73.50
14850;DHT22;7517;48.400;11.770;2023-11-21T12:02:51;15.70;73.20
14850;DHT22;7517;48.400;11.770;2023-11-21T12:05:20;15.70;73.70
14850;DHT22;7517;48.400;11.770;2023-11-21T12:07:50;15.70;73.80
14850;DHT22;7517;48.400;11.770;2023-11-21T12:10:22;15.70;74.20
14850;DHT22;7517;48.400;11.770;2023-11-21T12:12:52;15.70;74.10
14850;DHT22;7517;48.400;11.770;2023-11-21T12:15:20;15.70;74.40
14850;DHT22;7517;48.400;11.770;2023-11-21T12:17:49;15.70;74.30
14850;DHT22;7517;48.400;11.770;2023-11-21T12:20:19;15.70;73.80
14850;DHT22;7517;48.400;11.770;2023-11-21T12:22:48;15.70;73.50
14850;DHT22;7517;48.400;11.770;2023-11-21T12:25:17;15.70;73.80
14850;DHT22;7517;48.400;11.770;2023-11-21T12:27:47;15.70;73.90
14850;DHT22;7517;48.400;11.770;2023-11-21T12:30:17;15.70;73.70
14850;DHT22;7517;48.400;11.770;2023-11-21T12:32:49;15.70;73.80
14850;DHT22;7517;48.400;11.770;2023-11-21T12:35:18;15.70;73.50
14850;DHT22;7517;48.400;11.770;2023-11-21T12:37:47;15.60;73.30
14850;DHT22;7517;48.400;11.770;2023-11-21T12:40:16;15.60;73.50
14850;DHT22;7517;48.400;11.770;2023-11-21T12:42:44;15.60;73.50
14850;DHT22;7517;48.400;11.770;2023-11-21T12:45:22;15.60;73.40
14850;DHT22;7517;48.400;11.770;2023-11-21T12:47:52;15.50;73.00
14850;DHT22;7517;48.400;11.770;2023-11-21T12:50:26;15.50;73.40
14850;DHT22;7517;48.400;11.770;2023-11-21T12:52:59;15.50;73.40
14850;DHT22;7517;48.400;11.770;2023-11-21T12:55:30;15.40;73.40
14850;DHT22;7517;48.400;11.770;2023-11-21T12:58:03;15.40;73.30
14850;DHT22;7517;48.400;11.770;2023-11-21T13:00:36;15.40;73.00
14850;DHT22;7517;48.400;11.770;2023-11-21T13:03:05;15.40;73.20
14850;DHT22;7517;48.400;11.770;2023-11-21T13:05:35;15.30;73.40
14850;DHT22;7517;48.400;11.770;2023-11-21T13:08:06;15.30;73.50
14850;DHT22;7517;48.400;11.770;2023-11-21T13:10:36;15.30;73.80
14850;DHT22;7517;48.400;11.770;2023-11-21T13:13:06;15.30;74.30
14850;DHT22;7517;48.400;11.770;2023-11-21T13:15:39;15.20;74.20
14850;DHT22;7517;48.400;11.770;2023-11-21T13:18:07;15.20;74.10
14850;DHT22;7517;48.400;11.770;2023-11-21T13:20:36;15.20;74.40
14850;DHT22;7517;48.400;11.770;2023-11-21T13:23:08;15.20;74.50
14850;DHT22;7517;48.400;11.770;2023-11-21T13:25:37;15.10;74.70
14850;DHT22;7517;48.400;11.770;2023-11-21T13:28:08;15.10;75.30
14850;DHT22;7517;48.400;11.770;2023-11-21T13:30:36;15.00;75.50
14850;DHT22;7517;48.400;11.770;2023-11-21T13:33:06;15.00;75.80
14850;DHT22;7517;48.400;11.770;2023-11-21T13:35:36;15.00;76.20
14850;DHT22;7517;48.400;11.770;2023-11-21T13:38:09;14.90;76.40
14850;DHT22;7517;48.400;11.770;2023-11-21T13:40:39;14.90;76.60
14850;DHT22;7517;48.400;11.770;2023-11-21T13:43:10;14.90;76.90
14850;DHT22;7517;48.400;11.770;2023-11-21T13:45:39;14.90;77.10
14850;DHT22;7517;48.400;11.770;2023-11-21T13:48:08;14.90;77.30
14850;DHT22;7517;48.400;11.770;2023-11-21T13:50:37;14.90;77.40
14850;DHT22;7517;48.400;11.770;2023-11-21T13:53:07;14.90;77.30
14850;DHT22;7517;48.400;11.770;2023-11-21T13:55:44;14.90;77.20
14850;DHT22;7517;48.400;11.770;2023-11-21T13:58:14;14.90;77.00
14850;DHT22;7517;48.400;11.770;2023-11-21T14:00:46;14.80;76.70
14850;DHT22;7517;48.400;11.770;2023-11-21T14:03:21;14.80;76.60
14850;DHT22;7517;48.400;11.770;2023-11-21T14:05:51;14.80;76.80
14850;DHT22;7517;48.400;11.770;2023-11-21T14:08:19;14.80;76.90
14850;DHT22;7517;48.400;11.770;2023-11-21T14:10:47;14.80;77.30
14850;DHT22;7517;48.400;11.770;2023-11-21T14:13:22;14.80;77.40
14850;DHT22;7517;48.400;11.770;2023-11-21T14:15:50;14.80;77.30
14850;DHT22;7517;48.400;11.770;2023-11-21T14:18:27;14.80;77.20
14850;DHT22;7517;48.400;11.770;2023-11-21T14:21:01;14.70;76.80
14850;DHT22;7517;48.400;11.770;2023-11-21T14:23:28;14.70;77.00
14850;DHT22;7517;48.400;11.770;2023-11-21T14:25:55;14.70;77.80
14850;DHT22;7517;48.400;11.770;2023-11-21T14:28:25;14.60;76.90
14850;DHT22;7517;48.400;11.770;2023-11-21T14:30:52;14.60;76.80
14850;DHT22;7517;48.400;11.770;2023-11-21T14:33:20;14.50;76.70
14850;DHT22;7517;48.400;11.770;2023-11-21T14:35:47;14.50;77.00
14850;DHT22;7517;48.400;11.770;2023-11-21T14:38:15;14.40;77.30
14850;DHT22;7517;48.400;11.770;2023-11-21T14:40:43;14.40;78.10
14850;DHT22;7517;48.400;11.770;2023-11-21T14:43:13;14.40;77.50
14850;DHT22;7517;48.400;11.770;2023-11-21T14:45:43;14.40;77.50
14850;DHT22;7517;48.400;11.770;2023-11-21T14:48:10;14.40;77.90
14850;DHT22;7517;48.400;11.770;2023-11-21T14:50:41;14.30;78.20
14850;DHT22;7517;48.400;11.770;2023-11-21T14:53:23;14.30;78.30
14850;DHT22;7517;48.400;11.770;2023-11-21T14:56:09;14.30;78.60
14850;DHT22;7517;48.400;11.770;2023-11-21T14:58:35;14.30;78.70
14850;DHT22;7517;48.400;11.770;2023-11-21T15:01:05;14.30;78.80
14850;DHT22;7517;48.400;11.770;2023-11-21T15:03:33;14.30;78.70
14850;DHT22;7517;48.400;11.770;2023-11-21T15:06:09;14.20;78.60
14850;DHT22;7517;48.400;11.770;2023-11-21T15:08:53;14.20;78.30
14850;DHT22;7517;48.400;11.770;2023-11-21T15:11:38;14.20;78.30
14850;DHT22;7517;48.400;11.770;2023-11-21T15:14:06;14.20;78.70
14850;DHT22;7517;48.400;11.770;2023-11-21T15:16:36;14.20;78.80
14850;DHT22;7517;48.400;11.770;2023-11-21T15:19:09;14.10;78.50
14850;DHT22;7517;48.400;11.770;2023-11-21T15:21:38;14.20;78.80
14850;DHT22;7517;48.400;11.770;2023-11-21T15:24:05;14.20;78.80
14850;DHT22;7517;48.400;11.770;2023-11-21T15:26:33;14.20;79.60
14850;DHT22;7517;48.400;11.770;2023-11-21T15:29:00;14.10;79.00
14850;DHT22;7517;48.400;11.770;2023-11-21T15:31:27;14.10;79.00
14850;DHT22;7517;48.400;11.770;2023-11-21T15:33:56;14.10;79.00
14850;DHT22;7517;48.400;11.770;2023-11-21T15:36:25;14.10;78.80
14850;DHT22;7517;48.400;11.770;2023-11-21T15:38:53;14.10;79.00
14850;DHT22;7517;48.400;11.770;2023-11-21T15:41:20;14.10;79.10